createdAt,value
2019-05-15T00:04:43.358Z,82.23
2019-05-15T00:09:41.917Z,80.90
2019-05-15T00:14:38.816Z,81.18
2019-05-15T00:19:34.114Z,80.99
2019-05-15T00:24:29.850Z,81.95
2019-05-15T00:29:25.405Z,81.37
2019-05-15T00:34:20.800Z,82.23
2019-05-15T00:39:18.956Z,81.66
2019-05-15T00:44:14.138Z,80.99
2019-05-15T00:49:09.906Z,81.18
2019-05-15T00:54:05.780Z,81.62
2019-05-15T00:59:01.384Z,81.43
2019-05-15T01:03:58.588Z,80.10
2019-05-15T01:08:53.978Z,80.00
2019-05-15T01:13:49.823Z,80.95
2019-05-15T01:18:45.734Z,80.95
2019-05-15T01:23:41.473Z,80.00
2019-05-15T01:28:38.508Z,80.15
2019-05-15T01:33:33.873Z,80.24
2019-05-15T01:38:29.688Z,80.72
2019-05-15T01:43:26.047Z,81.86
2019-05-15T01:48:21.719Z,81.58
2019-05-15T01:53:18.690Z,81.67
2019-05-15T01:58:14.337Z,81.48
2019-05-15T02:03:10.853Z,82.29
2019-05-15T02:08:08.190Z,83.06
2019-05-15T02:13:03.884Z,82.96
2019-05-15T02:17:59.549Z,82.96
2019-05-15T02:22:56.260Z,83.25
2019-05-15T02:27:51.789Z,83.15
2019-05-15T02:32:50.143Z,83.44
2019-05-15T02:37:48.811Z,84.39
2019-05-15T02:42:44.756Z,84.20
2019-05-15T02:47:40.306Z,83.34
2019-05-15T02:52:38.850Z,83.82
2019-05-15T02:57:34.409Z,83.82
2019-05-15T03:02:29.828Z,83.82
2019-05-15T03:07:25.451Z,84.48
2019-05-15T03:12:21.164Z,85.15
2019-05-15T03:17:19.083Z,84.95
2019-05-15T03:22:14.197Z,85.43
2019-05-15T03:27:10.147Z,84.77
2019-05-15T03:32:24.412Z,84.77
2019-05-15T03:37:11.661Z,85.72
2019-05-15T03:42:09.565Z,85.24
2019-05-15T03:47:04.184Z,85.20
2019-05-15T03:51:59.864Z,84.53
2019-05-15T03:56:58.466Z,85.58
2019-05-15T04:01:53.614Z,85.86
2019-05-15T04:06:50.046Z,86.82
2019-05-15T04:11:49.688Z,86.68
2019-05-15T04:16:44.434Z,86.96
2019-05-15T04:21:44.636Z,85.49
2019-05-15T04:26:40.334Z,81.92
2019-05-15T04:31:51.756Z,78.91
2019-05-15T04:36:43.846Z,77.24
2019-05-15T04:41:39.431Z,74.62
2019-05-15T04:46:38.961Z,73.95
2019-05-15T04:51:33.666Z,75.81
2019-05-15T04:56:29.527Z,76.16
2019-05-15T05:01:25.114Z,75.96
2019-05-15T05:06:21.016Z,74.29
2019-05-15T05:11:19.775Z,73.47
2019-05-15T05:16:18.880Z,72.71
2019-05-15T05:21:14.257Z,70.90
2019-05-15T05:26:11.198Z,71.57
2019-05-15T05:31:08.483Z,71.47
2019-05-15T05:36:03.898Z,70.72
2019-05-15T05:41:00.889Z,69.85
2019-05-15T05:45:58.251Z,69.85
2019-05-15T05:50:53.527Z,68.56
2019-05-15T05:55:52.974Z,67.99
2019-05-15T06:00:49.097Z,68.08
2019-05-15T06:05:44.917Z,67.99
2019-05-15T06:10:41.506Z,66.37
2019-05-15T06:15:37.968Z,66.56
2019-05-15T06:20:33.770Z,64.75
2019-05-15T06:25:30.469Z,64.37
2019-05-15T06:30:30.259Z,63.99
2019-05-15T06:35:30.916Z,62.75
2019-05-15T06:40:25.903Z,61.32
2019-05-15T06:45:21.637Z,59.89
2019-05-15T06:50:17.947Z,60.18
2019-05-15T06:55:14.919Z,60.11
2019-05-15T07:00:10.494Z,59.26
2019-05-15T07:05:07.870Z,58.21
2019-05-15T07:10:03.516Z,56.87
2019-05-15T07:14:59.557Z,57.19
2019-05-15T07:19:55.349Z,56.71
2019-05-15T07:24:51.858Z,57.28
2019-05-15T07:29:48.746Z,57.38
2019-05-15T07:34:45.175Z,57.48
2019-05-15T07:39:40.702Z,55.47
2019-05-15T07:44:38.870Z,54.71
2019-05-15T07:49:35.390Z,54.26
2019-05-15T07:54:34.786Z,52.40
2019-05-15T07:59:33.041Z,50.24
2019-05-15T08:04:33.166Z,50.29
2019-05-15T08:09:30.293Z,48.18
2019-05-15T08:14:28.897Z,48.54
2019-05-15T08:19:24.382Z,48.57
2019-05-15T08:24:20.751Z,47.53
2019-05-15T08:29:21.133Z,45.29
2019-05-15T08:34:19.411Z,47.42
2019-05-15T08:39:15.713Z,45.43
2019-05-15T08:44:10.652Z,47.42
2019-05-15T08:49:09.247Z,46.46
2019-05-15T08:54:05.277Z,47.99
2019-05-15T08:59:01.265Z,46.84
2019-05-15T09:03:58.283Z,46.56
2019-05-15T09:08:58.332Z,45.98
2019-05-15T09:13:54.574Z,46.56
2019-05-15T09:18:51.351Z,46.75
2019-05-15T09:23:49.835Z,46.75
2019-05-15T09:28:49.163Z,46.66
2019-05-15T09:33:44.379Z,46.77
2019-05-15T09:43:42.399Z,45.29
2019-05-15T09:48:39.574Z,45.12
2019-05-15T09:53:39.113Z,44.26
2019-05-15T09:58:37.656Z,45.09
2019-05-15T10:03:33.595Z,46.03
2019-05-15T10:08:29.316Z,46.20
2019-05-15T10:13:24.648Z,46.31
2019-05-15T10:18:22.264Z,45.00
2019-05-15T10:23:19.502Z,45.50
2019-05-15T10:28:18.686Z,46.26
2019-05-15T10:33:14.705Z,44.93
2019-05-15T10:38:10.750Z,45.67
2019-05-15T10:43:09.075Z,46.15
2019-05-15T10:48:04.992Z,45.21
2019-05-15T10:53:04.367Z,44.54
2019-05-15T10:57:59.899Z,44.71
2019-05-15T11:02:57.842Z,45.57
2019-05-15T11:07:52.149Z,46.25
2019-05-15T11:12:49.286Z,44.69
2019-05-15T11:17:45.331Z,44.59
2019-05-15T11:22:42.965Z,44.33
2019-05-15T11:27:40.283Z,43.95
2019-05-15T11:32:39.158Z,43.39
2019-05-15T11:37:35.025Z,43.53
2019-05-15T11:47:34.649Z,43.59
2019-05-15T11:52:30.134Z,43.68
2019-05-15T11:57:39.353Z,43.24
2019-05-15T12:02:25.839Z,42.94
2019-05-15T12:07:19.572Z,44.73
2019-05-15T12:12:18.093Z,44.54
2019-05-15T12:17:15.508Z,43.85
2019-05-15T12:22:09.395Z,45.00
2019-05-15T12:27:15.373Z,44.06
2019-05-15T12:32:25.212Z,43.60
2019-05-15T12:37:09.795Z,44.01
2019-05-15T13:02:01.672Z,43.73
2019-05-15T13:07:12.126Z,43.17
2019-05-15T13:11:58.454Z,41.85
2019-05-15T13:16:55.455Z,43.99
2019-05-15T13:21:51.542Z,45.69
2019-05-15T13:26:47.643Z,45.31
2019-05-15T13:31:41.747Z,46.82
2019-05-15T13:36:39.242Z,46.98
2019-05-15T13:41:34.583Z,45.29
2019-05-15T13:46:32.985Z,46.36
2019-05-15T13:51:29.043Z,45.23
2019-05-15T13:56:28.814Z,46.67
2019-05-15T14:01:23.806Z,47.01
2019-05-15T14:06:20.346Z,48.44
2019-05-15T14:11:21.164Z,48.16
2019-05-15T14:16:15.866Z,47.03
2019-05-15T14:21:11.672Z,45.40
2019-05-15T14:26:18.343Z,47.13
2019-05-15T14:31:09.512Z,47.39
2019-05-15T14:36:04.621Z,48.16
2019-05-15T14:41:00.638Z,47.30
2019-05-15T14:45:58.546Z,46.82
2019-05-15T14:50:54.623Z,47.68
2019-05-15T14:55:50.058Z,49.02
2019-05-15T15:00:49.657Z,49.95
2019-05-15T15:05:44.579Z,49.00
2019-05-15T15:10:41.784Z,48.73
2019-05-15T15:15:38.514Z,46.44
2019-05-15T15:20:34.074Z,48.28
2019-05-15T15:25:29.949Z,47.39
2019-05-15T15:30:25.520Z,48.16
2019-05-15T15:35:21.557Z,48.90
2019-05-15T15:40:18.910Z,49.57
2019-05-15T15:45:14.397Z,50.05
2019-05-15T15:50:11.366Z,48.83
2019-05-15T15:55:08.907Z,47.32
2019-05-15T16:00:04.917Z,46.84
2019-05-15T16:05:00.923Z,46.65
2019-05-15T16:09:58.882Z,46.65
2019-05-15T16:14:57.810Z,48.18
2019-05-15T16:19:52.663Z,49.02
2019-05-15T16:24:49.147Z,48.35
2019-05-15T16:29:44.529Z,49.40
2019-05-15T16:34:40.264Z,49.57
2019-05-15T16:39:38.034Z,50.05
2019-05-15T16:44:33.791Z,49.60
2019-05-15T16:49:29.769Z,48.93
2019-05-15T16:54:28.837Z,46.46
2019-05-15T16:59:24.225Z,46.84
2019-05-15T17:04:21.630Z,47.61
2019-05-15T17:09:21.619Z,48.44
2019-05-15T17:14:19.796Z,48.35
2019-05-15T17:19:15.469Z,48.16
2019-05-15T17:24:10.818Z,47.87
2019-05-15T17:29:08.942Z,49.09
2019-05-15T17:34:05.387Z,49.57
2019-05-15T17:39:00.879Z,49.76
2019-05-15T17:43:57.987Z,50.05
2019-05-15T17:48:56.351Z,50.43
2019-05-15T17:53:52.126Z,51.01
2019-05-15T17:58:49.089Z,51.20
2019-05-15T18:03:48.452Z,51.10
2019-05-15T18:08:43.799Z,51.68
2019-05-15T18:13:39.660Z,52.34
2019-05-15T18:18:35.399Z,52.06
2019-05-15T18:23:32.614Z,52.83
2019-05-15T18:28:28.436Z,52.34
2019-05-15T18:33:24.284Z,51.58
2019-05-15T18:38:20.237Z,51.77
2019-05-15T18:43:17.994Z,51.75
2019-05-15T18:48:13.125Z,52.13
2019-05-15T18:53:10.053Z,52.89
2019-05-15T18:58:08.809Z,53.28
2019-05-15T19:03:18.357Z,53.47
2019-05-15T19:08:03.429Z,53.75
2019-05-15T19:12:59.143Z,54.61
2019-05-15T19:17:55.718Z,55.19
2019-05-15T19:22:51.248Z,55.47
2019-05-15T19:27:46.990Z,55.64
2019-05-15T19:32:43.070Z,56.02
2019-05-15T19:37:39.921Z,57.07
2019-05-15T19:42:38.082Z,56.40
2019-05-15T19:47:34.263Z,57.75
2019-05-15T19:52:29.735Z,58.22
2019-05-15T19:57:28.023Z,58.12
2019-05-15T20:02:22.908Z,58.80
2019-05-15T20:07:20.028Z,59.05
2019-05-15T20:12:15.546Z,59.24
2019-05-15T20:17:11.274Z,59.05
2019-05-15T20:22:08.584Z,59.24
2019-05-15T20:27:04.644Z,59.31
2019-05-15T20:32:01.446Z,59.22
2019-05-15T20:36:58.752Z,59.69
2019-05-15T20:41:54.372Z,59.50
2019-05-15T20:46:50.999Z,59.69
2019-05-15T20:51:48.900Z,59.38
2019-05-15T20:56:44.065Z,59.66
2019-05-15T21:01:40.783Z,60.04
2019-05-15T21:06:37.726Z,60.33
2019-05-15T21:11:34.403Z,60.04
2019-05-15T21:16:29.909Z,60.52
2019-05-15T21:21:28.263Z,60.52
2019-05-15T21:26:23.198Z,60.33
2019-05-15T21:31:21.811Z,60.39
2019-05-15T21:36:19.446Z,61.07
2019-05-15T21:41:18.627Z,61.83
2019-05-15T21:46:13.539Z,62.30
2019-05-15T21:51:11.748Z,62.88
2019-05-15T21:56:08.173Z,63.32
2019-05-15T22:01:03.734Z,63.23
2019-05-15T22:05:59.538Z,64.18
2019-05-15T22:10:55.371Z,63.99
2019-05-15T22:15:51.342Z,63.51
2019-05-15T22:20:48.061Z,63.89
2019-05-15T22:25:43.569Z,63.04
2019-05-15T22:30:39.400Z,62.46
2019-05-15T22:35:37.705Z,61.86
2019-05-15T22:40:34.202Z,62.24
2019-05-15T22:45:30.187Z,61.96
2019-05-15T22:50:28.133Z,60.43
2019-05-15T22:55:24.584Z,60.05
2019-05-15T23:00:20.123Z,59.38
2019-05-15T23:05:26.946Z,58.91
2019-05-15T23:10:15.116Z,58.81
2019-05-15T23:15:11.853Z,58.72
2019-05-15T23:20:08.647Z,58.43
2019-05-15T23:25:03.549Z,58.04
2019-05-15T23:29:59.281Z,57.57
2019-05-15T23:34:55.177Z,57.28
2019-05-15T23:39:51.327Z,57.67
2019-05-15T23:44:48.667Z,57.09
2019-05-15T23:49:43.830Z,56.43
2019-05-15T23:54:41.784Z,56.90
2019-05-15T23:59:38.423Z,57.09
